Accueil
METAR-TAF:

METAR-TAF

Aéroports :

Hallock Municipal Airport

Hallock, Minnesota, États-Unis

latitude: 48-45-10N, longitude: 096-56-35W, altitude: 250 m

Observation

Le bulletin a été fait il y a 16 minutes, à 16:16 UTC
Vent 9 kt de sud
Température -5°C
Humidité 79%
Pression 1016 hPa
Visibilité: 16.1 km
Ciel couvert à une hauteur de 6000 ft

METAR: KHCO 141616Z AUTO 19009KT 10SM OVC060 M05/M08 A3000 RMK AO2

Heure: 10:32 (16:32 UTC)


TAF: absent

Observations et prévisions météorologiques de plus de 4000 aéroports (messages METAR et TAF).

Les stations disponibles sont représentées par des disques jaunes et rouges sur la carte.

Passer la souris dessus pour voir le nom de la station.

Cliquer dessus pour voir les observations et prévisions météorologiques.

Pour changer de carte: cliquez sur les boutons verts avec une croix noire pour zoomer, sur le bouton vert avec un tiret pour effectuer un zoom arrière, ou sur les flèches vertes pour les cartes adjacentes.


METAR-TAF: